Time;durP1;ratioP1;P1;durP2;ratioP2;P2;SDS_P1;SDS_P2;PMS_P1;PMS_P2;Temp;Humidity;BMP_temperature;BMP_pressure;BME280_temperature;BME280_humidity;BME280_pressure;Samples;Min_cycle;Max_cycle;Signal;HPM_P1;HPM_P2
2022/01/25 00:09:07;;;;;;;5.60;1.33;;;;;;;;;;5053885;28;20051;-75
2022/01/25 00:28:24;;;;;;;7.90;2.03;;;;;;;;;;5053594;28;20104;-77
2022/01/25 00:31:03;;;;;;;5.57;1.30;;;;;;;;;;5053302;28;20025;-76
2022/01/25 00:33:32;;;;;;;6.03;1.20;;;;;;;;;;5052044;28;20070;-77
2022/01/25 00:36:01;;;;;;;5.43;1.57;;;;;;;;;;5035513;28;20405;-77
2022/01/25 00:38:31;;;;;;;6.57;1.40;;;;;;;;;;5053060;28;20113;-77
2022/01/25 00:40:59;;;;;;;7.97;1.42;;;;;;;;;;5051864;28;20120;-77
2022/01/25 00:43:27;;;;;;;5.07;1.10;;;;;;;;;;5053115;28;20029;-76
2022/01/25 00:46:00;;;;;;;10.77;2.15;;;;;;;;;;5052888;28;20428;-76
2022/01/25 00:48:43;;;;;;;5.82;1.63;;;;;;;;;;5052584;28;20043;-76
2022/01/25 00:54:02;;;;;;;5.47;1.15;;;;;;;;;;5052920;28;20029;-76
2022/01/25 00:56:34;;;;;;;7.47;1.38;;;;;;;;;;5054780;28;20021;-74
2022/01/25 00:59:03;;;;;;;4.97;1.30;;;;;;;;;;5054486;28;20082;-74
2022/01/25 01:01:30;;;;;;;7.20;1.63;;;;;;;;;;5053994;28;20094;-74
2022/01/25 01:03:58;;;;;;;3.08;1.33;;;;;;;;;;5051692;28;20079;-77
2022/01/25 01:06:26;;;;;;;5.60;1.40;;;;;;;;;;5052806;28;20436;-75
2022/01/25 01:08:55;;;;;;;7.00;1.30;;;;;;;;;;5055297;28;20048;-76
2022/01/25 01:11:31;;;;;;;6.25;1.23;;;;;;;;;;5056812;28;20044;-74
2022/01/25 01:14:06;;;;;;;8.98;2.15;;;;;;;;;;5056892;28;20497;-77
2022/01/25 01:16:54;;;;;;;6.80;1.27;;;;;;;;;;5056907;28;20021;-74
2022/01/25 01:36:02;;;;;;;6.18;1.20;;;;;;;;;;5056509;28;20489;-75
2022/01/25 01:39:08;;;;;;;9.40;2.17;;;;;;;;;;5056161;28;20455;-76
2022/01/25 01:41:52;;;;;;;4.72;1.30;;;;;;;;;;5056140;28;20033;-79
2022/01/25 01:44:27;;;;;;;6.65;1.10;;;;;;;;;;5054951;28;20490;-75
2022/01/25 01:47:09;;;;;;;6.90;1.30;;;;;;;;;;5056148;28;20024;-76
2022/01/25 01:49:45;;;;;;;7.80;1.42;;;;;;;;;;5054930;28;20070;-74
2022/01/25 01:52:13;;;;;;;9.68;1.45;;;;;;;;;;5054823;28;20439;-75
2022/01/25 01:54:41;;;;;;;5.55;0.98;;;;;;;;;;5056128;28;20040;-75
2022/01/25 01:57:08;;;;;;;7.03;1.50;;;;;;;;;;5056027;28;20025;-74
2022/01/25 01:59:35;;;;;;;9.10;1.73;;;;;;;;;;5055989;28;20025;-76
2022/01/25 02:02:02;;;;;;;5.25;1.30;;;;;;;;;;5055886;28;20040;-76
2022/01/25 02:04:30;;;;;;;9.05;1.45;;;;;;;;;;5054200;28;20128;-74
2022/01/25 02:06:57;;;;;;;9.95;2.30;;;;;;;;;;5054469;28;20473;-75
2022/01/25 02:09:24;;;;;;;4.75;1.45;;;;;;;;;;5055844;28;20021;-75
2022/01/25 02:11:51;;;;;;;7.95;1.60;;;;;;;;;;5055780;28;20017;-76
2022/01/25 02:14:18;;;;;;;6.93;1.85;;;;;;;;;;5055673;28;20108;-75
2022/01/25 02:24:45;;;;;;;8.07;1.73;;;;;;;;;;5055883;28;20043;-75
2022/01/25 02:27:12;;;;;;;6.82;1.33;;;;;;;;;;5054513;28;20025;-75
2022/01/25 02:29:39;;;;;;;7.57;1.30;;;;;;;;;;5054026;28;20025;-75
2022/01/25 02:32:08;;;;;;;5.82;1.33;;;;;;;;;;5055420;28;20025;-76
2022/01/25 02:34:35;;;;;;;8.02;1.73;;;;;;;;;;5055240;28;20104;-74
2022/01/25 02:37:04;;;;;;;6.32;1.60;;;;;;;;;;5055360;28;20052;-77
2022/01/25 02:39:32;;;;;;;5.03;1.38;;;;;;;;;;5037566;28;20037;-76
2022/01/25 02:41:59;;;;;;;6.78;1.27;;;;;;;;;;5037551;28;20106;-76
2022/01/25 02:44:29;;;;;;;6.43;1.27;;;;;;;;;;5055067;28;20108;-78
2022/01/25 02:49:32;;;;;;;5.07;1.15;;;;;;;;;;5055149;28;20378;-79
2022/01/25 02:52:03;;;;;;;7.03;1.65;;;;;;;;;;5055147;28;20021;-77
2022/01/25 02:54:30;;;;;;;5.57;1.35;;;;;;;;;;5053626;28;20110;-74
2022/01/25 02:56:57;;;;;;;7.00;1.83;;;;;;;;;;5053667;28;20154;-75
2022/01/25 02:59:26;;;;;;;6.90;1.40;;;;;;;;;;5054646;28;20059;-75
2022/01/25 03:01:54;;;;;;;4.68;1.20;;;;;;;;;;5054821;28;20021;-76
2022/01/25 03:04:23;;;;;;;6.82;1.40;;;;;;;;;;5054405;28;20037;-74
2022/01/25 03:06:52;;;;;;;5.40;1.05;;;;;;;;;;5037264;28;20489;-76
2022/01/25 03:09:19;;;;;;;4.43;1.45;;;;;;;;;;5053304;28;20442;-77
2022/01/25 03:11:50;;;;;;;5.85;1.55;;;;;;;;;;5054504;28;20016;-75
2022/01/25 03:14:20;;;;;;;8.07;1.85;;;;;;;;;;5053223;28;20569;-76
2022/01/25 03:17:07;;;;;;;5.47;1.10;;;;;;;;;;5053260;28;20025;-77
2022/01/25 03:22:15;;;;;;;6.93;1.48;;;;;;;;;;5054474;28;20526;-77
2022/01/25 03:24:42;;;;;;;7.50;1.42;;;;;;;;;;5053003;28;20429;-76
2022/01/25 03:27:09;;;;;;;4.28;1.05;;;;;;;;;;5053059;28;20432;-80
2022/01/25 03:29:37;;;;;;;4.85;1.25;;;;;;;;;;5052932;28;20545;-79
2022/01/25 03:32:04;;;;;;;7.10;1.23;;;;;;;;;;5051955;28;20021;-79
2022/01/25 03:34:31;;;;;;;5.45;0.80;;;;;;;;;;5052874;28;20033;-77
2022/01/25 03:36:58;;;;;;;5.32;1.42;;;;;;;;;;5054171;28;20442;-76
2022/01/25 03:39:26;;;;;;;7.75;1.67;;;;;;;;;;5052852;28;20112;-76
2022/01/25 03:41:53;;;;;;;6.43;1.40;;;;;;;;;;5052772;28;20508;-78
2022/01/25 03:44:21;;;;;;;5.18;1.10;;;;;;;;;;5054094;28;20074;-77
2022/01/25 03:52:02;;;;;;;7.95;1.23;;;;;;;;;;5054030;28;20437;-76
2022/01/25 03:54:30;;;;;;;4.97;1.65;;;;;;;;;;5052711;28;20025;-77
2022/01/25 03:56:57;;;;;;;7.28;1.50;;;;;;;;;;5053857;28;20025;-77
2022/01/25 03:59:30;;;;;;;6.60;1.15;;;;;;;;;;5053902;28;20032;-77
2022/01/25 04:02:00;;;;;;;5.25;1.35;;;;;;;;;;5053742;28;20441;-77
2022/01/25 04:04:29;;;;;;;;;;;;;;;;;;5052815;28;20037;-77
2022/01/25 04:06:56;;;;;;;5.35;1.00;;;;;;;;;;5052832;28;19901;-78
2022/01/25 04:09:24;;;;;;;5.30;1.20;;;;;;;;;;5054117;28;20013;-77
2022/01/25 04:11:52;;;;;;;6.45;1.23;;;;;;;;;;5053494;28;20028;-78
2022/01/25 04:14:19;;;;;;;5.88;1.13;;;;;;;;;;5053570;28;20021;-77
2022/01/25 04:16:55;;;;;;;4.22;0.93;;;;;;;;;;5053549;28;20113;-76
2022/01/25 04:19:36;;;;;;;4.88;1.10;;;;;;;;;;5052126;28;20050;-76
2022/01/25 04:25:24;;;;;;;6.63;1.20;;;;;;;;;;5053663;28;20131;-75
2022/01/25 04:27:25;;;;;;;5.32;1.10;;;;;;;;;;5057118;28;20021;-77
2022/01/25 04:29:53;;;;;;;6.03;1.05;;;;;;;;;;5054134;28;20028;-79
2022/01/25 04:32:32;;;;;;;5.43;1.27;;;;;;;;;;5055427;28;20044;-77
2022/01/25 04:35:24;;;;;;;4.68;1.15;;;;;;;;;;5054183;28;20101;-77
2022/01/25 04:49:03;;;;;;;6.00;1.20;;;;;;;;;;5055272;28;20031;-78
2022/01/25 04:54:40;;;;;;;6.00;1.10;;;;;;;;;;5053145;28;20040;-75
2022/01/25 04:59:49;;;;;;;6.75;1.42;;;;;;;;;;5053240;28;19951;-77
2022/01/25 05:03:08;;;;;;;3.63;1.00;;;;;;;;;;5053010;28;20456;-73
2022/01/25 05:05:15;;;;;;;3.90;1.17;;;;;;;;;;5055860;28;20571;-72
2022/01/25 05:07:54;;;;;;;7.57;1.25;;;;;;;;;;5053622;28;20128;-75
2022/01/25 05:10:22;;;;;;;3.67;1.10;;;;;;;;;;5053604;28;20021;-77
2022/01/25 05:13:07;;;;;;;5.82;1.20;;;;;;;;;;5051266;28;20040;-75
2022/01/25 05:16:02;;;;;;;7.07;1.33;;;;;;;;;;5053086;28;20028;-75
2022/01/25 05:18:37;;;;;;;6.15;1.17;;;;;;;;;;5053288;28;20037;-75
2022/01/25 05:23:53;;;;;;;3.75;1.08;;;;;;;;;;5052404;28;20044;-76
2022/01/25 05:26:20;;;;;;;4.90;1.05;;;;;;;;;;5052768;28;20456;-76
2022/01/25 05:28:50;;;;;;;4.13;0.98;;;;;;;;;;5052946;28;20029;-74
2022/01/25 05:31:17;;;;;;;5.53;1.45;;;;;;;;;;5052629;28;20482;-75
2022/01/25 05:33:44;;;;;;;5.93;1.42;;;;;;;;;;5052461;28;20478;-75
2022/01/25 05:36:13;;;;;;;5.47;1.00;;;;;;;;;;5053360;28;20031;-76
2022/01/25 05:38:42;;;;;;;5.82;1.08;;;;;;;;;;5052086;28;20040;-77
2022/01/25 05:41:09;;;;;;;4.25;1.13;;;;;;;;;;5052060;28;20021;-76
2022/01/25 05:44:12;;;;;;;5.07;0.80;;;;;;;;;;5052830;28;20477;-77
2022/01/25 05:46:46;;;;;;;6.32;1.17;;;;;;;;;;5052134;28;20103;-75
2022/01/25 05:49:13;;;;;;;5.35;1.50;;;;;;;;;;5050980;28;20025;-73
2022/01/25 05:51:41;;;;;;;4.03;1.08;;;;;;;;;;5050619;28;20116;-73
2022/01/25 05:54:08;;;;;;;5.35;1.10;;;;;;;;;;5051911;28;20025;-71
2022/01/25 05:56:36;;;;;;;3.20;0.80;;;;;;;;;;5055255;28;20032;-73
2022/01/25 05:59:03;;;;;;;3.25;0.80;;;;;;;;;;5055761;28;20029;-74
2022/01/25 06:01:31;;;;;;;3.00;0.80;;;;;;;;;;5054560;28;20035;-74
2022/01/25 06:03:59;;;;;;;5.35;1.27;;;;;;;;;;5054049;28;20079;-75
2022/01/25 06:06:27;;;;;;;6.63;0.98;;;;;;;;;;5055957;28;20166;-75
2022/01/25 06:08:54;;;;;;;3.92;0.85;;;;;;;;;;5055725;28;20029;-75
2022/01/25 06:11:21;;;;;;;3.55;1.15;;;;;;;;;;5054581;28;20387;-73
2022/01/25 06:13:49;;;;;;;5.00;1.13;;;;;;;;;;5056134;28;20104;-76
2022/01/25 06:16:16;;;;;;;5.80;0.80;;;;;;;;;;5057590;28;20021;-76
2022/01/25 06:18:43;;;;;;;5.18;1.13;;;;;;;;;;5058133;28;20024;-77
2022/01/25 06:21:10;;;;;;;5.70;1.17;;;;;;;;;;5059135;28;20048;-76
2022/01/25 06:23:38;;;;;;;6.88;1.33;;;;;;;;;;5061306;28;20025;-75
2022/01/25 06:26:05;;;;;;;5.32;1.27;;;;;;;;;;5041686;28;20028;-77
2022/01/25 06:28:32;;;;;;;3.38;1.10;;;;;;;;;;5058268;28;20047;-75
2022/01/25 06:30:59;;;;;;;6.70;1.13;;;;;;;;;;5057205;28;20547;-76
2022/01/25 06:33:26;;;;;;;2.85;0.93;;;;;;;;;;5058985;28;20032;-76
2022/01/25 06:35:54;;;;;;;4.07;0.98;;;;;;;;;;5058701;28;20171;-75
2022/01/25 06:38:22;;;;;;;6.43;1.10;;;;;;;;;;5059294;28;20028;-76
2022/01/25 06:40:49;;;;;;;4.70;1.13;;;;;;;;;;5042661;28;20028;-77
2022/01/25 06:43:16;;;;;;;4.20;0.80;;;;;;;;;;5055995;28;20470;-73
2022/01/25 06:45:46;;;;;;;6.40;1.27;;;;;;;;;;5056793;28;20488;-77
2022/01/25 06:48:13;;;;;;;4.20;0.93;;;;;;;;;;5060458;28;20021;-79
2022/01/25 06:50:40;;;;;;;5.15;1.08;;;;;;;;;;5066679;28;20029;-78
2022/01/25 06:53:07;;;;;;;3.63;0.80;;;;;;;;;;5068007;28;20021;-78
2022/01/25 06:55:34;;;;;;;5.05;1.08;;;;;;;;;;5069409;28;20045;-79
2022/01/25 06:58:01;;;;;;;4.70;0.98;;;;;;;;;;5066647;28;20029;-78
2022/01/25 07:00:29;;;;;;;4.80;1.05;;;;;;;;;;5063649;28;20051;-78
2022/01/25 07:02:57;;;;;;;6.72;1.02;;;;;;;;;;5064016;28;20037;-79
2022/01/25 07:05:24;;;;;;;4.10;1.00;;;;;;;;;;5065564;28;20045;-78
2022/01/25 07:07:52;;;;;;;4.90;0.95;;;;;;;;;;5063372;28;20021;-78
2022/01/25 07:10:20;;;;;;;5.72;1.10;;;;;;;;;;5065312;28;20021;-78
2022/01/25 07:12:47;;;;;;;3.30;0.90;;;;;;;;;;5066155;28;20413;-77
2022/01/25 07:15:14;;;;;;;6.22;1.30;;;;;;;;;;5067467;28;20044;-78
2022/01/25 07:17:42;;;;;;;5.63;1.25;;;;;;;;;;5064823;28;20029;-77
2022/01/25 07:20:10;;;;;;;5.50;1.17;;;;;;;;;;5065116;28;20025;-78
2022/01/25 07:22:38;;;;;;;8.77;1.40;;;;;;;;;;5067637;28;20017;-78
2022/01/25 07:25:06;;;;;;;4.10;0.90;;;;;;;;;;5065862;28;20104;-78
2022/01/25 07:27:33;;;;;;;4.93;0.90;;;;;;;;;;5064768;28;20021;-78
2022/01/25 07:30:00;;;;;;;5.18;1.10;;;;;;;;;;5062532;28;20021;-77
2022/01/25 07:32:28;;;;;;;5.95;1.30;;;;;;;;;;5063640;28;20025;-78
2022/01/25 07:34:55;;;;;;;5.30;1.10;;;;;;;;;;5058323;28;20025;-77
2022/01/25 07:37:22;;;;;;;5.38;0.98;;;;;;;;;;5062949;28;20070;-77
2022/01/25 07:39:49;;;;;;;8.13;1.05;;;;;;;;;;5068038;28;20012;-77
2022/01/25 07:42:18;;;;;;;3.45;0.90;;;;;;;;;;5069148;28;20428;-79
2022/01/25 07:44:45;;;;;;;7.45;1.55;;;;;;;;;;5075004;23;20064;-78
2022/01/25 07:47:12;;;;;;;3.53;1.00;;;;;;;;;;5061271;28;20029;-78
2022/01/25 07:49:40;;;;;;;6.55;1.05;;;;;;;;;;5062109;28;20017;-78
2022/01/25 07:52:07;;;;;;;3.35;0.95;;;;;;;;;;5061076;28;20022;-77
2022/01/25 07:54:35;;;;;;;7.10;1.17;;;;;;;;;;5042779;28;20101;-77
2022/01/25 07:57:02;;;;;;;6.43;1.17;;;;;;;;;;5060942;28;20040;-78
2022/01/25 07:59:29;;;;;;;5.80;1.17;;;;;;;;;;5060766;28;20076;-78
2022/01/25 08:01:56;;;;;;;6.03;1.30;;;;;;;;;;5046457;28;20028;-77
2022/01/25 08:04:23;;;;;;;6.05;1.58;;;;;;;;;;5046550;28;20460;-80
2022/01/25 08:06:51;;;;;;;6.75;1.65;;;;;;;;;;5041643;28;20143;-79
2022/01/25 08:09:19;;;;;;;5.25;1.40;;;;;;;;;;5039781;28;20025;-78
2022/01/25 08:11:46;;;;;;;5.50;1.20;;;;;;;;;;5039759;28;20589;-78
2022/01/25 08:14:13;;;;;;;5.80;1.10;;;;;;;;;;5039307;28;20024;-77
2022/01/25 08:16:45;;;;;;;5.30;1.48;;;;;;;;;;5038515;28;20564;-77
2022/01/25 08:19:12;;;;;;;5.65;1.08;;;;;;;;;;5037331;28;20052;-78
2022/01/25 08:21:43;;;;;;;6.07;2.33;;;;;;;;;;5039437;28;20079;-76
2022/01/25 08:24:11;;;;;;;5.95;1.27;;;;;;;;;;5039883;28;20037;-78
2022/01/25 08:26:39;;;;;;;7.78;1.85;;;;;;;;;;5036370;28;20032;-78
2022/01/25 08:29:08;;;;;;;7.15;2.53;;;;;;;;;;5036690;28;20040;-78
2022/01/25 08:31:35;;;;;;;9.57;2.67;;;;;;;;;;5038434;28;20024;-79
2022/01/25 08:34:03;;;;;;;9.20;3.85;;;;;;;;;;5040756;28;20029;-78
2022/01/25 08:36:33;;;;;;;5.10;1.60;;;;;;;;;;5038659;28;20049;-78
2022/01/25 08:39:01;;;;;;;7.05;2.42;;;;;;;;;;5039481;28;20048;-80
2022/01/25 08:41:31;;;;;;;6.97;1.38;;;;;;;;;;5042506;28;20026;-78
2022/01/25 08:44:00;;;;;;;9.35;3.30;;;;;;;;;;5042034;28;20029;-79
2022/01/25 08:46:27;;;;;;;6.45;1.85;;;;;;;;;;5024242;28;20080;-80
2022/01/25 08:49:00;;;;;;;4.57;1.00;;;;;;;;;;5043312;28;20025;-79
2022/01/25 08:51:28;;;;;;;10.18;4.25;;;;;;;;;;5047631;28;20368;-78
2022/01/25 08:53:55;;;;;;;6.65;2.58;;;;;;;;;;5042934;28;20049;-79
2022/01/25 08:56:22;;;;;;;16.95;6.88;;;;;;;;;;5042378;28;20045;-78
2022/01/25 08:59:01;;;;;;;7.45;1.60;;;;;;;;;;5041296;28;20049;-77
2022/01/25 09:01:32;;;;;;;5.47;0.95;;;;;;;;;;5038871;28;20087;-78
2022/01/25 09:04:03;;;;;;;5.65;1.20;;;;;;;;;;5040826;28;20096;-78
2022/01/25 09:06:31;;;;;;;4.03;1.00;;;;;;;;;;5042330;28;20039;-79
2022/01/25 09:09:07;;;;;;;4.78;0.82;;;;;;;;;;5039915;28;20047;-77
2022/01/25 09:11:35;;;;;;;3.88;0.98;;;;;;;;;;5025951;28;20026;-78
2022/01/25 09:14:02;;;;;;;3.90;0.90;;;;;;;;;;5039654;28;20029;-78
2022/01/25 09:16:30;;;;;;;4.80;1.35;;;;;;;;;;5041538;28;20022;-77
2022/01/25 09:18:58;;;;;;;5.93;1.02;;;;;;;;;;5040166;28;20434;-79
2022/01/25 09:21:27;;;;;;;4.50;1.20;;;;;;;;;;5045601;28;20096;-79
2022/01/25 09:23:54;;;;;;;4.47;1.00;;;;;;;;;;5037674;28;20028;-80
2022/01/25 09:26:25;;;;;;;6.20;1.10;;;;;;;;;;5034511;28;20101;-79
2022/01/25 09:28:54;;;;;;;5.43;1.25;;;;;;;;;;5035626;28;20091;-77
2022/01/25 09:31:25;;;;;;;6.07;1.13;;;;;;;;;;5038520;28;20105;-79
2022/01/25 09:33:52;;;;;;;5.25;1.20;;;;;;;;;;5037821;28;20446;-76
2022/01/25 09:36:19;;;;;;;5.53;1.60;;;;;;;;;;5039944;28;20033;-78
2022/01/25 09:38:47;;;;;;;6.45;1.30;;;;;;;;;;5038244;28;20516;-78
2022/01/25 09:41:14;;;;;;;4.68;1.00;;;;;;;;;;5037895;28;20021;-78
2022/01/25 09:43:41;;;;;;;6.20;1.48;;;;;;;;;;5041970;28;20049;-79
2022/01/25 09:46:08;;;;;;;5.30;0.90;;;;;;;;;;5042002;28;20044;-78
2022/01/25 09:48:36;;;;;;;4.35;0.90;;;;;;;;;;5042377;28;20013;-80
2022/01/25 09:51:04;;;;;;;6.90;1.63;;;;;;;;;;5022037;28;20156;-80
2022/01/25 09:53:33;;;;;;;5.85;1.10;;;;;;;;;;5038575;28;20021;-79
2022/01/25 09:56:00;;;;;;;5.82;1.55;;;;;;;;;;5039447;28;20385;-79
2022/01/25 09:58:28;;;;;;;7.80;1.23;;;;;;;;;;5039879;28;20104;-81
2022/01/25 10:00:57;;;;;;;3.75;0.80;;;;;;;;;;5042156;28;20022;-80
2022/01/25 10:05:56;;;;;;;6.78;1.42;;;;;;;;;;5040167;28;20034;-80
2022/01/25 10:08:25;;;;;;;5.35;1.48;;;;;;;;;;5041590;28;20022;-80
2022/01/25 10:10:57;;;;;;;5.28;1.10;;;;;;;;;;5024225;28;20405;-80
2022/01/25 10:13:29;;;;;;;4.40;1.10;;;;;;;;;;5040460;28;20147;-80
2022/01/25 10:15:59;;;;;;;6.80;1.50;;;;;;;;;;5039563;28;20036;-79
2022/01/25 10:18:46;;;;;;;5.95;1.27;;;;;;;;;;5042776;28;20034;-80
2022/01/25 10:21:17;;;;;;;5.00;1.13;;;;;;;;;;5039611;28;20033;-81
2022/01/25 10:24:03;;;;;;;6.45;1.27;;;;;;;;;;5039811;28;20540;-79
2022/01/25 10:26:32;;;;;;;5.32;1.25;;;;;;;;;;5039925;28;20025;-80
2022/01/25 10:28:59;;;;;;;5.32;1.20;;;;;;;;;;5022767;28;20037;-79
2022/01/25 10:31:37;;;;;;;6.13;1.50;;;;;;;;;;5036967;28;20029;-78
2022/01/25 10:34:09;;;;;;;5.10;1.55;;;;;;;;;;5035829;28;20498;-79
2022/01/25 10:36:47;;;;;;;6.22;1.00;;;;;;;;;;5036707;28;20029;-79
2022/01/25 10:39:15;;;;;;;6.68;1.25;;;;;;;;;;5037654;28;20055;-79
2022/01/25 10:41:43;;;;;;;3.72;1.10;;;;;;;;;;5036198;28;20030;-78
2022/01/25 10:44:10;;;;;;;6.32;1.48;;;;;;;;;;5036507;28;20025;-79
2022/01/25 10:46:40;;;;;;;7.00;1.17;;;;;;;;;;5035344;28;20049;-79
2022/01/25 10:49:09;;;;;;;8.00;1.58;;;;;;;;;;5036842;28;20033;-79
2022/01/25 10:51:45;;;;;;;10.23;1.75;;;;;;;;;;5036799;28;20096;-79
2022/01/25 10:54:15;;;;;;;6.93;1.17;;;;;;;;;;5035052;28;20079;-79
2022/01/25 10:56:50;;;;;;;6.35;1.33;;;;;;;;;;5040943;28;20117;-79
2022/01/25 10:59:22;;;;;;;5.32;1.75;;;;;;;;;;5042162;28;20028;-79
2022/01/25 11:01:54;;;;;;;6.25;1.60;;;;;;;;;;5037279;28;20021;-77
2022/01/25 11:04:28;;;;;;;6.07;1.05;;;;;;;;;;5037589;28;20053;-78
2022/01/25 11:07:00;;;;;;;6.93;1.20;;;;;;;;;;5036231;28;20030;-79
2022/01/25 11:09:34;;;;;;;9.32;1.38;;;;;;;;;;5035896;28;20308;-79
2022/01/25 11:12:04;;;;;;;4.05;1.13;;;;;;;;;;5037979;28;20032;-79
2022/01/25 11:14:50;;;;;;;6.10;1.20;;;;;;;;;;5019711;28;20026;-79
2022/01/25 11:17:28;;;;;;;6.50;1.13;;;;;;;;;;5037432;28;20113;-78
2022/01/25 11:19:56;;;;;;;9.40;1.60;;;;;;;;;;5040038;28;20482;-77
2022/01/25 11:22:24;;;;;;;4.95;1.27;;;;;;;;;;5018250;28;20032;-79
2022/01/25 11:25:02;;;;;;;6.10;1.15;;;;;;;;;;5033816;28;20091;-78
2022/01/25 11:27:30;;;;;;;7.63;1.20;;;;;;;;;;5035413;28;20022;-78
2022/01/25 11:29:59;;;;;;;5.53;1.30;;;;;;;;;;5035083;28;20076;-79
2022/01/25 11:32:31;;;;;;;8.40;1.38;;;;;;;;;;5033352;28;20494;-78
2022/01/25 11:35:00;;;;;;;4.70;1.20;;;;;;;;;;5033622;28;20029;-80
2022/01/25 11:37:38;;;;;;;6.63;1.40;;;;;;;;;;5034650;28;20048;-78
2022/01/25 11:40:20;;;;;;;6.30;1.63;;;;;;;;;;5033356;28;20028;-79
2022/01/25 11:42:48;;;;;;;7.75;1.70;;;;;;;;;;5033810;28;20025;-79
2022/01/25 11:45:15;;;;;;;6.32;1.25;;;;;;;;;;5034597;28;20045;-79
2022/01/25 11:47:48;;;;;;;6.45;1.20;;;;;;;;;;5033140;28;20112;-79
2022/01/25 11:50:16;;;;;;;5.68;1.30;;;;;;;;;;5034320;28;20013;-79
2022/01/25 11:52:51;;;;;;;5.63;1.10;;;;;;;;;;5032490;28;20025;-79
2022/01/25 11:55:21;;;;;;;6.25;1.27;;;;;;;;;;5034771;28;20017;-78
2022/01/25 11:57:54;;;;;;;5.32;1.45;;;;;;;;;;5032762;28;20547;-79
2022/01/25 12:00:23;;;;;;;5.07;1.30;;;;;;;;;;5034004;28;20022;-79
2022/01/25 12:02:53;;;;;;;6.97;1.45;;;;;;;;;;5033887;28;20034;-78
2022/01/25 12:05:27;;;;;;;5.25;1.08;;;;;;;;;;5033846;28;20014;-79
2022/01/25 12:08:06;;;;;;;4.35;1.13;;;;;;;;;;5033835;28;20072;-78
2022/01/25 12:10:37;;;;;;;5.82;0.90;;;;;;;;;;5033673;28;20096;-81
2022/01/25 12:13:13;;;;;;;4.20;0.95;;;;;;;;;;5033754;28;20026;-79
2022/01/25 12:15:41;;;;;;;4.90;1.30;;;;;;;;;;5032522;28;20030;-77
2022/01/25 12:18:27;;;;;;;7.53;1.30;;;;;;;;;;5033600;28;20029;-79
2022/01/25 12:20:54;;;;;;;2.75;0.93;;;;;;;;;;5033711;28;20417;-78
2022/01/25 12:23:44;;;;;;;7.47;1.35;;;;;;;;;;5032286;28;20028;-79
2022/01/25 12:26:18;;;;;;;3.70;1.00;;;;;;;;;;5033690;28;20121;-79
2022/01/25 12:28:47;;;;;;;8.73;1.35;;;;;;;;;;5033542;28;20021;-79
2022/01/25 12:31:18;;;;;;;6.15;1.50;;;;;;;;;;5033456;28;20022;-78
2022/01/25 12:33:46;;;;;;;6.65;1.17;;;;;;;;;;5032121;28;20517;-78
2022/01/25 12:36:13;;;;;;;5.88;1.38;;;;;;;;;;5033365;28;20026;-79
2022/01/25 12:38:44;;;;;;;4.82;1.10;;;;;;;;;;5032021;28;20080;-79
2022/01/25 12:41:10;;;;;;;;;;;;;;;;;;5032453;28;20445;-79
2022/01/25 12:43:39;;;;;;;4.60;1.00;;;;;;;;;;5033355;28;19909;-79
2022/01/25 12:46:06;;;;;;;6.55;1.20;;;;;;;;;;5032881;28;20497;-78
2022/01/25 12:48:33;;;;;;;8.02;1.75;;;;;;;;;;5033112;28;20091;-79
2022/01/25 12:51:02;;;;;;;5.50;1.48;;;;;;;;;;5031765;28;20045;-79
2022/01/25 12:53:32;;;;;;;7.43;1.52;;;;;;;;;;5031781;28;20113;-81
2022/01/25 12:56:01;;;;;;;5.82;1.63;;;;;;;;;;5031785;28;20083;-78
2022/01/25 12:58:30;;;;;;;4.97;1.00;;;;;;;;;;5031619;28;20380;-79
2022/01/25 13:00:59;;;;;;;5.80;1.38;;;;;;;;;;5015426;28;20036;-78
2022/01/25 13:03:37;;;;;;;5.63;1.60;;;;;;;;;;5032654;28;20037;-78
2022/01/25 13:06:08;;;;;;;7.55;1.35;;;;;;;;;;5033011;28;20018;-78
2022/01/25 13:08:40;;;;;;;5.93;1.40;;;;;;;;;;5032865;28;20022;-78
2022/01/25 13:11:18;;;;;;;4.60;1.17;;;;;;;;;;5031647;28;20017;-79
2022/01/25 13:14:01;;;;;;;5.38;1.30;;;;;;;;;;5033178;28;20028;-79
2022/01/25 13:16:46;;;;;;;6.80;1.55;;;;;;;;;;5031597;28;20033;-77
2022/01/25 13:19:17;;;;;;;8.85;1.98;;;;;;;;;;5032797;28;20022;-79
2022/01/25 13:21:50;;;;;;;5.40;1.42;;;;;;;;;;5033123;28;20032;-79
2022/01/25 13:24:19;;;;;;;3.85;1.23;;;;;;;;;;5032817;28;20021;-78
2022/01/25 13:26:50;;;;;;;5.85;1.40;;;;;;;;;;5031503;28;20029;-78
2022/01/25 13:32:12;;;;;;;5.93;1.48;;;;;;;;;;5032681;28;20033;-79
2022/01/25 13:34:39;;;;;;;6.35;1.45;;;;;;;;;;5032582;28;20056;-78
2022/01/25 13:37:06;;;;;;;4.25;1.00;;;;;;;;;;5031302;28;20032;-79
2022/01/25 13:39:35;;;;;;;6.35;1.55;;;;;;;;;;5032509;28;20032;-79
2022/01/25 13:42:10;;;;;;;5.28;1.50;;;;;;;;;;5031225;28;20112;-79
2022/01/25 13:47:22;;;;;;;6.10;1.88;;;;;;;;;;5032656;28;20064;-79
2022/01/25 13:49:51;;;;;;;4.50;1.38;;;;;;;;;;5032460;28;20014;-79
2022/01/25 13:52:21;;;;;;;5.07;1.52;;;;;;;;;;5031252;28;20025;-79
2022/01/25 13:54:48;;;;;;;8.90;1.20;;;;;;;;;;5032852;28;20534;-77
2022/01/25 13:57:15;;;;;;;11.48;1.45;;;;;;;;;;5031026;28;20029;-79
2022/01/25 13:59:43;;;;;;;5.05;1.40;;;;;;;;;;5032460;28;20045;-78
2022/01/25 14:02:12;;;;;;;7.15;1.80;;;;;;;;;;5032556;28;20028;-78
2022/01/25 14:04:39;;;;;;;4.57;1.10;;;;;;;;;;5032312;28;20099;-78
2022/01/25 14:07:06;;;;;;;4.47;1.40;;;;;;;;;;5032337;28;20017;-79
2022/01/25 14:09:36;;;;;;;7.95;1.88;;;;;;;;;;5031040;28;20399;-79
2022/01/25 14:25:48;;;;;;;6.18;1.60;;;;;;;;;;5035738;28;20029;-79
2022/01/25 14:28:18;;;;;;;3.40;1.17;;;;;;;;;;5035731;28;20022;-80
2022/01/25 14:30:46;;;;;;;5.50;1.65;;;;;;;;;;5035877;28;20414;-80
2022/01/25 14:33:15;;;;;;;4.35;1.13;;;;;;;;;;5035667;28;20028;-79
2022/01/25 14:35:45;;;;;;;6.20;1.67;;;;;;;;;;5034182;28;20036;-79
2022/01/25 14:38:17;;;;;;;5.88;1.65;;;;;;;;;;5034205;28;20036;-80
2022/01/25 14:40:54;;;;;;;7.22;1.75;;;;;;;;;;5034126;28;20033;-79
2022/01/25 14:43:25;;;;;;;4.05;1.00;;;;;;;;;;5034083;28;20029;-78
2022/01/25 14:46:13;;;;;;;7.53;1.52;;;;;;;;;;5033896;28;20041;-79
2022/01/25 14:48:44;;;;;;;6.28;1.30;;;;;;;;;;5035372;28;20492;-79
2022/01/25 14:51:11;;;;;;;;;;;;;;;;;;5035744;28;20548;-79
2022/01/25 14:53:39;;;;;;;6.10;1.52;;;;;;;;;;5034405;28;19905;-79
2022/01/25 14:56:07;;;;;;;6.65;1.60;;;;;;;;;;5033894;28;20083;-79
2022/01/25 15:01:20;;;;;;;7.68;1.55;;;;;;;;;;5035295;28;20021;-80
2022/01/25 15:03:49;;;;;;;6.13;1.58;;;;;;;;;;5034766;28;20525;-78
2022/01/25 15:06:18;;;;;;;6.72;1.30;;;;;;;;;;5035062;28;20382;-79
2022/01/25 15:08:52;;;;;;;5.55;1.52;;;;;;;;;;5034919;28;20096;-78
2022/01/25 15:11:20;;;;;;;5.55;1.30;;;;;;;;;;5035019;28;20060;-78
2022/01/25 15:13:51;;;;;;;6.68;1.88;;;;;;;;;;5033488;28;20117;-79
2022/01/25 15:16:19;;;;;;;4.88;1.30;;;;;;;;;;5033471;28;20437;-79
2022/01/25 15:18:47;;;;;;;7.18;1.98;;;;;;;;;;5034781;28;20418;-79
2022/01/25 15:21:15;;;;;;;6.55;1.75;;;;;;;;;;5034739;28;20359;-78
2022/01/25 15:23:47;;;;;;;5.82;1.63;;;;;;;;;;5033430;28;20418;-79
2022/01/25 15:26:16;;;;;;;5.82;1.77;;;;;;;;;;5033425;28;20490;-78
2022/01/25 15:28:47;;;;;;;5.75;1.50;;;;;;;;;;5034463;28;20426;-78
2022/01/25 15:31:13;;;;;;;;;;;;;;;;;;5034985;28;20212;-78
2022/01/25 15:33:42;;;;;;;4.47;1.45;;;;;;;;;;5034506;28;19920;-79
2022/01/25 15:36:12;;;;;;;7.05;1.92;;;;;;;;;;5034415;28;20036;-78
2022/01/25 15:38:39;;;;;;;5.45;1.73;;;;;;;;;;5033140;28;20026;-79
2022/01/25 15:41:11;;;;;;;5.82;1.63;;;;;;;;;;5034329;28;20040;-78
2022/01/25 15:43:58;;;;;;;6.35;1.60;;;;;;;;;;5032943;28;20030;-78
2022/01/25 15:46:54;;;;;;;5.72;1.67;;;;;;;;;;5034165;28;20095;-78
2022/01/25 15:49:20;;;;;;;4.35;1.30;;;;;;;;;;5032998;28;20041;-78
2022/01/25 15:51:47;;;;;;;7.45;1.65;;;;;;;;;;5033048;28;20026;-79
2022/01/25 15:54:14;;;;;;;4.78;1.70;;;;;;;;;;5034177;28;20037;-78
2022/01/25 15:56:41;;;;;;;5.32;2.00;;;;;;;;;;5034108;28;20032;-79
2022/01/25 15:59:08;;;;;;;5.35;1.92;;;;;;;;;;5032794;28;20150;-78
2022/01/25 16:01:35;;;;;;;7.28;1.98;;;;;;;;;;5032688;28;20021;-80
2022/01/25 16:04:03;;;;;;;5.65;1.77;;;;;;;;;;5032541;28;20057;-79
2022/01/25 16:06:30;;;;;;;5.97;1.80;;;;;;;;;;5033885;28;20032;-79
2022/01/25 16:08:57;;;;;;;4.68;2.10;;;;;;;;;;5032507;28;20087;-79
2022/01/25 16:11:25;;;;;;;6.43;2.03;;;;;;;;;;5032600;28;20108;-79
2022/01/25 16:13:53;;;;;;;7.05;2.00;;;;;;;;;;5032480;28;20492;-78
2022/01/25 16:16:20;;;;;;;7.38;2.00;;;;;;;;;;5032462;28;20049;-79
2022/01/25 16:18:50;;;;;;;7.25;2.00;;;;;;;;;;5033721;28;20021;-79
2022/01/25 16:21:18;;;;;;;5.50;1.98;;;;;;;;;;5032367;28;20135;-79
2022/01/25 16:23:45;;;;;;;5.55;1.88;;;;;;;;;;5033489;28;20101;-79
2022/01/25 16:26:15;;;;;;;5.75;1.67;;;;;;;;;;5033533;28;20449;-79
2022/01/25 16:28:43;;;;;;;6.28;2.05;;;;;;;;;;5033501;28;20064;-79
2022/01/25 16:31:23;;;;;;;4.55;2.17;;;;;;;;;;5033584;28;20024;-79
2022/01/25 16:33:51;;;;;;;6.10;1.97;;;;;;;;;;5033689;28;20390;-79
2022/01/25 16:36:19;;;;;;;6.03;2.13;;;;;;;;;;5033525;28;20021;-79
2022/01/25 16:38:46;;;;;;;6.40;2.00;;;;;;;;;;5032864;28;20030;-78
2022/01/25 16:41:14;;;;;;;6.72;2.47;;;;;;;;;;5033576;28;20025;-78
2022/01/25 16:43:42;;;;;;;5.43;1.88;;;;;;;;;;5032217;28;20402;-78
2022/01/25 16:46:10;;;;;;;8.68;1.80;;;;;;;;;;5033124;28;20095;-78
2022/01/25 16:48:38;;;;;;;4.65;1.88;;;;;;;;;;5032295;28;20371;-78
2022/01/25 16:51:05;;;;;;;5.25;2.10;;;;;;;;;;5033237;28;20028;-78